Map

Track Data

SID SEASON NUMBER BASIN SUBBASIN NAME ISO_TIME NATURE LAT LON WMO_WIND WMO_PRES WMO_AGENCY TRACK_TYPE DIST2LAND LANDFALL IFLAG USA_AGENCY USA_ATCF_ID USA_LAT USA_LON USA_RECORD USA_STATUS USA_WIND USA_PRES USA_SSHS USA_R34_NE USA_R34_SE USA_R34_SW USA_R34_NW USA_R50_NE USA_R50_SE USA_R50_SW USA_R50_NW USA_R64_NE USA_R64_SE USA_R64_SW USA_R64_NW USA_POCI USA_ROCI USA_RMW USA_EYE TOKYO_LAT TOKYO_LON TOKYO_GRADE TOKYO_WIND TOKYO_PRES TOKYO_R50_DIR TOKYO_R50_LONG TOKYO_R50_SHORT TOKYO_R30_DIR TOKYO_R30_LONG TOKYO_R30_SHORT TOKYO_LAND CMA_LAT CMA_LON CMA_CAT CMA_WIND CMA_PRES HKO_LAT HKO_LON HKO_CAT HKO_WIND HKO_PRES NEWDELHI_LAT NEWDELHI_LON NEWDELHI_GRADE NEWDELHI_WIND NEWDELHI_PRES NEWDELHI_CI NEWDELHI_DP NEWDELHI_POCI REUNION_LAT REUNION_LON REUNION_TYPE REUNION_WIND REUNION_PRES REUNION_TNUM REUNION_CI REUNION_RMW REUNION_R34_NE REUNION_R34_SE REUNION_R34_SW REUNION_R34_NW REUNION_R50_NE REUNION_R50_SE REUNION_R50_SW REUNION_R50_NW REUNION_R64_NE REUNION_R64_SE REUNION_R64_SW REUNION_R64_NW BOM_LAT BOM_LON BOM_TYPE BOM_WIND BOM_PRES BOM_TNUM BOM_CI BOM_RMW BOM_R34_NE BOM_R34_SE BOM_R34_SW BOM_R34_NW BOM_R50_NE BOM_R50_SE BOM_R50_SW BOM_R50_NW BOM_R64_NE BOM_R64_SE BOM_R64_SW BOM_R64_NW BOM_ROCI BOM_POCI BOM_EYE BOM_POS_METHOD BOM_PRES_METHOD NADI_LAT NADI_LON NADI_CAT NADI_WIND NADI_PRES WELLINGTON_LAT WELLINGTON_LON WELLINGTON_WIND WELLINGTON_PRES DS824_LAT DS824_LON DS824_STAGE DS824_WIND DS824_PRES TD9636_LAT TD9636_LON TD9636_STAGE TD9636_WIND TD9636_PRES TD9635_LAT TD9635_LON TD9635_WIND TD9635_PRES TD9635_ROCI NEUMANN_LAT NEUMANN_LON NEUMANN_CLASS NEUMANN_WIND NEUMANN_PRES MLC_LAT MLC_LON MLC_CLASS MLC_WIND MLC_PRES USA_GUST BOM_GUST BOM_GUST_PER REUNION_GUST REUNION_GUST_PER USA_SEAHGT USA_SEARAD_NE USA_SEARAD_SE USA_SEARAD_SW USA_SEARAD_NW STORM_SPEED STORM_DIR
1951083S08159 1951 21 SP EA NOT_NAMED 1951-03-23 23:00:00 NR -7.50000 158.500 1004 bom main 11 11 ______O___O___ -1 -7.40000 158.800 1004 -7.60000 158.200 2 4 239
1951083S08159 1951 21 SP EA NOT_NAMED 1951-03-24 00:00:00 TS -7.53492 158.451 main 11 11 O_____P__OP___ jtwc_sh SH251951 -7.60000 158.200 -1 -7.43110 158.784 -7.40000 158.800 TC 20 1004 -7.64112 158.194 2 3 206
1951083S08159 1951 21 SP EA NOT_NAMED 1951-03-24 03:00:00 TS -7.65887 158.420 main 15 15 P_____P__PP___ SH251951 -7.76250 158.210 -1 -7.52464 158.736 -7.49423 158.736 TC -7.76470 158.175 2 3 195
1951083S08159 1951 21 SP EA NOT_NAMED 1951-03-24 06:00:00 TS -7.77644 158.385 main 22 22 O_____P__PP___ jtwc_sh SH251951 -7.90000 158.200 -1 -7.61901 158.684 -7.58900 158.670 TC -7.88912 158.152 2 2 201
1951083S08159 1951 21 SP EA NOT_NAMED 1951-03-24 09:00:00 TS -7.88294 158.333 main 34 34 P_____P__PP___ SH251951 -8.00000 158.158 -1 -7.71485 158.626 -7.68487 158.600 TC -8.01498 158.123 2 2 208
1951083S08159 1951 21 SP EA NOT_NAMED 1951-03-24 11:00:00 TS -7.95134 158.294 main 39 39 P_____P__PO___ SH251951 -8.06358 158.119 -1 -7.77987 158.582 -7.74966 158.549 TC -8.10000 158.100 2 2 208
1951083S08159 1951 21 SP EA NOT_NAMED 1951-03-24 12:00:00 TS -7.98761 158.274 main 39 39 O_____P__PP___ jtwc_sh SH251951 -8.10000 158.100 -1 -7.81279 158.559 -7.78239 158.522 TC -8.14289 158.087 2 3 207
1951083S08159 1951 21 SP EA NOT_NAMED 1951-03-24 15:00:00 TS -8.11352 158.217 main 49 34 P_____P__PP___ SH251951 -8.24999 158.065 -1 -7.91346 158.481 -7.88212 158.436 TC -8.27207 158.038 2 3 208
1951083S08159 1951 21 SP EA NOT_NAMED 1951-03-24 18:00:00 TS -8.24033 158.140 main 34 22 O_____P__PP___ jtwc_sh SH251951 -8.40000 158.000 -1 -8.01748 158.390 -7.98460 158.338 TC -8.39959 157.970 2 3 219
1951083S08159 1951 21 SP EA NOT_NAMED 1951-03-24 21:00:00 TS -8.35065 158.023 main 15 11 P_____P__PP___ SH251951 -8.50751 157.865 -1 -8.12548 158.282 -8.09038 158.227 TC -8.52235 157.878 2 3 229
1951083S08159 1951 21 SP EA NOT_NAMED 1951-03-24 23:00:00 TS -8.42032 157.931 1000 bom main 11 11 P_____O__PO___ SH251951 -8.56929 157.755 -1 -8.20000 158.200 1000 -8.16300 158.144 TC -8.60000 157.800 2 4 233
1951083S08159 1951 21 SP EA NOT_NAMED 1951-03-25 00:00:00 TS -8.45520 157.882 main 0 0 O_____P__OP___ jtwc_sh SH251951 -8.60000 157.700 -1 -8.23807 158.156 -8.20000 158.100 TC 30 1000 -8.63793 157.755 2 4 234
1951083S08159 1951 21 SP EA NOT_NAMED 1951-03-25 03:00:00 TS -8.56317 157.736 main 11 11 P_____P__PP___ SH251951 -8.69998 157.557 -1 -8.35534 158.010 -8.31385 157.956 TC -8.74670 157.598 2 4 235
1951083S08159 1951 21 SP EA NOT_NAMED 1951-03-25 06:00:00 TS -8.67123 157.573 main 24 24 O_____P__PP___ jtwc_sh SH251951 -8.80000 157.400 -1 -8.47654 157.848 -8.43167 157.796 TC -8.84795 157.418 2 4 238
1951083S08159 1951 21 SP EA NOT_NAMED 1951-03-25 09:00:00 TS -8.77914 157.385 main 47 47 P_____P__PP___ SH251951 -8.90001 157.200 -1 -8.60091 157.674 -8.55308 157.625 TC -8.94168 157.227 2 4 240
1951083S08159 1951 21 SP EA NOT_NAMED 1951-03-25 11:00:00 TS -8.85086 157.257 main 62 62 P_____P__PO___ SH251951 -8.96667 157.064 -1 -8.68518 157.553 -8.63580 157.506 TC -9.00000 157.100 2 4 240
1951083S08159 1951 21 SP EA NOT_NAMED 1951-03-25 12:00:00 TS -8.88599 157.195 main 67 67 O_____P__PP___ jtwc_sh SH251951 -9.00000 157.000 -1 -8.72764 157.491 -8.67766 157.445 TC -9.02465 157.040 2 4 238
1951083S08159 1951 21 SP EA NOT_NAMED 1951-03-25 15:00:00 TS -8.99350 157.025 main 81 81 P_____P__PP___ SH251951 -9.10747 156.850 -1 -8.85595 157.302 -8.80502 157.259 TC -9.09159 156.861 2 4 238
1951083S08159 1951 21 SP EA NOT_NAMED 1951-03-25 18:00:00 TS -9.09551 156.853 main 95 95 O_____P__PP___ jtwc_sh SH251951 -9.20000 156.700 -1 -8.98508 157.112 -8.93479 157.071 TC -9.15770 156.684 2 4 242
1951083S08159 1951 21 SP EA NOT_NAMED 1951-03-25 21:00:00 TS -9.18027 156.664 main 114 114 P_____P__PP___ SH251951 -9.24251 156.500 -1 -9.11424 156.923 -9.06657 156.884 TC -9.23549 156.511 2 4 245
1951083S08159 1951 21 SP EA NOT_NAMED 1951-03-25 23:00:00 TS -9.24089 156.538 1000 bom main 126 126 P_____O__PO___ SH251951 -9.27454 156.364 -1 -9.20000 156.800 1000 -9.15536 156.761 TC -9.30000 156.400 2 4 243
1951083S08159 1951 21 SP EA NOT_NAMED 1951-03-26 00:00:00 TS -9.27395 156.478 main 135 135 O_____P__OP___ jtwc_sh SH251951 -9.30000 156.300 -1 -9.23106 156.745 -9.20000 156.700 TC 30 1000 -9.33870 156.345 2 4 236
1951083S08159 1951 21 SP EA NOT_NAMED 1951-03-26 03:00:00 TS -9.38909 156.315 main 158 158 P_____P__PP___ SH251951 -9.42749 156.135 -1 -9.31937 156.582 -9.30025 156.536 TC -9.47084 156.187 2 4 231
1951083S08159 1951 21 SP EA NOT_NAMED 1951-03-26 06:00:00 TS -9.52533 156.166 main 173 173 O_____P__PP___ jtwc_sh SH251951 -9.60000 156.000 -1 -9.40582 156.422 -9.39866 156.375 TC -9.62216 156.035 2 4 224
1951083S08159 1951 21 SP EA NOT_NAMED 1951-03-26 09:00:00 TS -9.68005 156.034 main 204 204 P_____P__PP___ SH251951 -9.80748 155.900 -1 -9.49745 156.262 -9.50145 156.215 TC -9.78641 155.892 2 4 220
1951083S08159 1951 21 SP EA NOT_NAMED 1951-03-26 11:00:00 TS -9.78492 155.948 main 220 220 P_____P__PO___ SH251951 -9.94212 155.836 -1 -9.56487 156.156 -9.57550 156.109 TC -9.90000 155.800 2 4 221
1951083S08159 1951 21 SP EA NOT_NAMED 1951-03-26 12:00:00 TS -9.83299 155.904 main 220 220 O_____P__PP___ jtwc_sh SH251951 -10.0000 155.800 -1 -9.60127 156.103 -9.61488 156.056 TC -9.94881 155.759 2 4 229
1951083S08159 1951 21 SP EA NOT_NAMED 1951-03-26 15:00:00 TS -9.95055 155.759 main 244 244 P_____P__PP___ SH251951 -10.0925 155.657 -1 -9.72433 155.942 -9.74520 155.896 TC -10.0982 155.642 2 4 229
1951083S08159 1951 21 SP EA NOT_NAMED 1951-03-26 18:00:00 TS -10.0868 155.608 main 267 267 O_____P__PP___ jtwc_sh SH251951 -10.2000 155.500 -1 -9.87366 155.780 -9.89866 155.734 TC -10.2618 155.525 2 4 221
1951083S08159 1951 21 SP EA NOT_NAMED 1951-03-26 21:00:00 TS -10.2860 155.459 main 291 291 P_____P__PP___ SH251951 -10.4200 155.357 -1 -10.0563 155.613 -10.0815 155.569 TC -10.4521 155.398 2 5 215
1951083S08159 1951 21 SP EA NOT_NAMED 1951-03-26 23:00:00 TS -10.4458 155.354 1000 bom main 307 307 P_____O__PO___ SH251951 -10.6031 155.256 -1 -10.2000 155.500 1000 -10.2228 155.457 TC -10.6000 155.300 2 6 212
1951083S08159 1951 21 SP EA NOT_NAMED 1951-03-27 00:00:00 TS -10.5337 155.296 main 322 322 O_____P__OP___ jtwc_sh SH251951 -10.7000 155.200 -1 -10.2853 155.441 -10.3000 155.400 TC 30 1000 -10.6833 155.241 2 7 213
1951083S08159 1951 21 SP EA NOT_NAMED 1951-03-27 03:00:00 TS -10.8183 155.109 main 362 362 P_____P__PP___ SH251951 -10.9925 155.007 -1 -10.5692 155.262 -10.5767 155.220 TC -10.9606 155.046 2 7 213
1951083S08159 1951 21 SP EA NOT_NAMED 1951-03-27 06:00:00 TS -11.1292 154.910 main 402 402 O_____P__PP___ jtwc_sh SH251951 -11.3000 154.800 -1 -10.8889 155.078 -10.8901 155.036 TC -11.2670 154.837 2 7 212
1951083S08159 1951 21 SP EA NOT_NAMED 1951-03-27 09:00:00 TS -11.4511 154.708 main 448 440 P_____P__PP___ SH251951 -11.6000 154.585 -1 -11.2366 154.891 -11.2321 154.848 TC -11.5869 154.630 2 8 211
1951083S08159 1951 21 SP EA NOT_NAMED 1951-03-27 11:00:00 TS -11.6705 154.579 main 443 432 P_____P__PO___ SH251951 -11.8000 154.455 -1 -11.4801 154.765 -11.4723 154.721 TC -11.8000 154.500 2 8 209
1951083S08159 1951 21 SP EA NOT_NAMED 1951-03-27 12:00:00 TS -11.7799 154.521 main 436 429 O_____P__PP___ jtwc_sh SH251951 -11.9000 154.400 -1 -11.6045 154.702 -11.5951 154.658 TC -11.9000 154.446 2 7 205
1951083S08159 1951 21 SP EA NOT_NAMED 1951-03-27 15:00:00 TS -12.1112 154.374 main 437 431 P_____P__PP___ SH251951 -12.2000 154.300 -1 -11.9848 154.511 -11.9713 154.467 TC -12.1999 154.295 2 7 203
1951083S08159 1951 21 SP EA NOT_NAMED 1951-03-27 18:00:00 TS -12.4444 154.230 main 431 431 O_____P__PP___ jtwc_sh SH251951 -12.5000 154.200 -1 -12.3697 154.319 -12.3526 154.276 TC -12.4999 154.152 2 7 205
1951083S08159 1951 21 SP EA NOT_NAMED 1951-03-27 21:00:00 TS -12.7765 154.050 main 444 435 P_____P__PP___ SH251951 -12.8000 154.015 -1 -12.7513 154.127 -12.7315 154.087 TC -12.7999 154.006 2 8 209
1951083S08159 1951 21 SP EA NOT_NAMED 1951-03-27 23:00:00 TS -12.9958 153.921 1000 bom main 440 440 P_____O__PO___ SH251951 -13.0000 153.872 -1 -13.0000 154.000 1000 -12.9788 153.962 TC -13.0000 153.900 2 8 210
1951083S08159 1951 21 SP EA NOT_NAMED 1951-03-28 00:00:00 TS -13.1032 153.854 main 446 438 O_____P__OP___ jtwc_sh SH251951 -13.1000 153.800 -1 -13.1208 153.928 -13.1000 153.900 TC 30 1000 -13.0951 153.840 2 8 212
1951083S08159 1951 21 SP EA NOT_NAMED 1951-03-28 03:00:00 TS -13.4228 153.649 main 444 444 P_____P__PP___ SH251951 -13.4000 153.600 -1 -13.4842 153.709 -13.4513 153.688 TC -13.3783 153.649 2 8 212
1951083S08159 1951 21 SP EA NOT_NAMED 1951-03-28 06:00:00 TS -13.7426 153.442 main 454 454 O_____P__PP___ jtwc_sh SH251951 -13.7000 153.400 -1 -13.8452 153.488 -13.7994 153.475 TC -13.6681 153.446 2 8 212
1951083S08159 1951 21 SP EA NOT_NAMED 1951-03-28 09:00:00 TS -14.0542 153.235 main 476 476 P_____P__PP___ SH251951 -13.9775 153.200 -1 -14.1987 153.271 -14.1404 153.265 TC -13.9772 153.238 2 8 212
1951083S08159 1951 21 SP EA NOT_NAMED 1951-03-28 11:00:00 TS -14.2710 153.099 main 489 489 P_____P__PO___ SH251951 -14.1829 153.067 -1 -14.4278 153.132 -14.3617 153.131 TC -14.2000 153.100 2 8 210
1951083S08159 1951 21 SP EA NOT_NAMED 1951-03-28 12:00:00 TS -14.3884 153.031 main 493 493 O_____P__PP___ jtwc_sh SH251951 -14.3000 153.000 -1 -14.5397 153.065 -14.4702 153.067 TC -14.3322 153.026 2 9 207
1951083S08159 1951 21 SP EA NOT_NAMED 1951-03-28 15:00:00 TS -14.7808 152.832 main 522 522 P_____P__PP___ SH251951 -14.7500 152.800 -1 -14.8630 152.875 -14.7849 152.884 TC -14.7561 152.801 2 9 206
1951083S08159 1951 21 SP EA NOT_NAMED 1951-03-28 18:00:00 TS -15.1662 152.644 main 554 554 O_____P__PP___ jtwc_sh SH251951 -15.2000 152.600 -1 -15.1635 152.709 -15.0808 152.725 TC -15.1866 152.586 2 8 207
1951083S08159 1951 21 SP EA NOT_NAMED 1951-03-28 21:00:00 TS -15.4920 152.464 main 582 578 P_____P__PP___ SH251951 -15.5450 152.378 -1 -15.4362 152.572 -15.3537 152.595 TC -15.5800 152.399 2 7 208
1951083S08159 1951 21 SP EA NOT_NAMED 1951-03-28 23:00:00 TS -15.6742 152.365 999 bom main 599 596 P_____O__PO___ SH251951 -15.7250 152.250 -1 -15.6000 152.500 999 -15.5211 152.527 TC -15.8000 152.300 2 6 208
1951083S08159 1951 21 SP EA NOT_NAMED 1951-03-29 00:00:00 TS -15.7486 152.321 main 596 596 O_____P__OP___ jtwc_sh SH251951 -15.8000 152.200 -1 -15.6596 152.447 -15.6000 152.500 TC 30 999 -15.8835 152.258 2 4 210
1951083S08159 1951 21 SP EA NOT_NAMED 1951-03-29 03:00:00 TS -15.9204 152.215 main 609 600 P_____P__PP___ SH251951 -15.9725 152.120 -1 -15.8094 152.301 -15.7689 152.372 TC -16.0789 152.164 2 3 209
1951083S08159 1951 21 SP EA NOT_NAMED 1951-03-29 06:00:00 TS -16.0497 152.153 main 600 576 O_____P__PP___ jtwc_sh SH251951 -16.1000 152.100 -1 -15.9273 152.183 -15.9053 152.270 TC -16.2160 152.111 2 3 202
1951083S08159 1951 21 SP EA NOT_NAMED 1951-03-29 09:00:00 TS -16.1754 152.117 main 576 567 P_____P__PP___ SH251951 -16.2500 152.092 -1 -16.0278 152.103 -16.0228 152.204 TC -16.3262 152.095 2 3 192
1951083S08159 1951 21 SP EA NOT_NAMED 1951-03-29 11:00:00 TS -16.2580 152.111 main 567 567 P_____P__PO___ SH251951 -16.3500 152.097 -1 -16.0925 152.077 -16.0974 152.185 TC -16.4000 152.100 2 2 190
1951083S08159 1951 21 SP EA NOT_NAMED 1951-03-29 12:00:00 TS -16.2987 152.108 main 567 558 O_____P__PP___ jtwc_sh SH251951 -16.4000 152.100 -1 -16.1258 152.074 -16.1350 152.185 TC -16.4326 152.080 2 2 187
1951083S08159 1951 21 SP EA NOT_NAMED 1951-03-29 15:00:00 TS -16.4199 152.104 main 558 547 P_____P__PP___ SH251951 -16.5425 152.078 -1 -16.2359 152.108 -16.2554 152.224 TC -16.5233 152.033 2 3 172
1951083S08159 1951 21 SP EA NOT_NAMED 1951-03-29 18:00:00 TS -16.5615 152.158 main 547 539 O_____P__PP___ jtwc_sh SH251951 -16.7000 152.100 -1 -16.3728 152.217 -16.3974 152.332 TC -16.6376 152.041 2 4 150
1951083S08159 1951 21 SP EA NOT_NAMED 1951-03-29 21:00:00 TS -16.7279 152.287 main 546 537 P_____P__PP___ SH251951 -16.8473 152.175 -1 -16.5510 152.414 -16.5745 152.521 TC -16.8194 152.149 2 5 140
1951083S08159 1951 21 SP EA NOT_NAMED 1951-03-29 23:00:00 TS -16.8823 152.440 998 bom main 537 536 P_____O__PO___ SH251951 -16.9963 152.302 -1 -16.7000 152.600 998 -16.7186 152.696 TC -17.0000 152.300 2 7 136
1951083S08159 1951 21 SP EA NOT_NAMED 1951-03-30 00:00:00 TS -16.9868 152.544 main 536 536 O_____P__OP___ jtwc_sh SH251951 -17.1000 152.400 -1 -16.8018 152.714 -16.8000 152.800 TC 35 998 -17.1321 152.405 2 11 136
1951083S08159 1951 21 SP EA NOT_NAMED 1951-03-30 03:00:00 TS -17.3972 152.960 main 548 541 P_____P__PP___ SH251951 -17.5551 152.832 -1 -17.1423 153.126 -17.1226 153.187 TC -17.6107 152.821 2 13 134
1951083S08159 1951 21 SP EA NOT_NAMED 1951-03-30 06:00:00 TS -17.8742 153.492 main 562 562 O_____P__PP___ jtwc_sh SH251951 -18.1000 153.400 -1 -17.5268 153.634 -17.4901 153.669 TC -18.1540 153.357 2 14 132
1951083S08159 1951 21 SP EA NOT_NAMED 1951-03-30 09:00:00 TS -18.3597 154.076 main 570 568 P_____P__PP___ SH251951 -18.6374 153.977 -1 -17.9440 154.220 -17.8928 154.233 TC -18.6871 153.970 2 15 130
1951083S08159 1951 21 SP EA NOT_NAMED 1951-03-30 11:00:00 TS -18.6669 154.494 main 572 571 P_____P__PO___ SH251951 -18.9618 154.389 -1 -18.2348 154.646 -18.1761 154.645 TC -19.0000 154.400 2 15 127
1951083S08159 1951 21 SP EA NOT_NAMED 1951-03-30 12:00:00 TS -18.8034 154.706 main 579 578 O_____P__PP___ jtwc_sh SH251951 -19.1000 154.600 -1 -18.3827 154.868 -18.3210 154.861 TC -19.1131 154.599 2 14 121
1951083S08159 1951 21 SP EA NOT_NAMED 1951-03-30 15:00:00 TS -19.1535 155.362 main 603 603 P_____P__PP___ SH251951 -19.3873 155.243 -1 -18.8319 155.562 -18.7650 155.538 TC -19.3957 155.224 2 14 118
1951083S08159 1951 21 SP EA NOT_NAMED 1951-03-30 18:00:00 TS -19.4643 156.042 main 635 635 O_____P__PP___ jtwc_sh SH251951 -19.6000 155.900 -1 -19.2808 156.283 -19.2156 156.248 TC -19.6252 155.878 2 14 116
1951083S08159 1951 21 SP EA NOT_NAMED 1951-03-30 21:00:00 TS -19.7818 156.725 main 659 659 P_____P__PP___ SH251951 -19.8422 156.543 -1 -19.7189 157.015 -19.6635 156.974 TC -19.8421 156.549 2 14 116
1951083S08159 1951 21 SP EA NOT_NAMED 1951-03-30 23:00:00 TS -19.9956 157.183 996 bom main 669 666 P_____O__PO___ SH251951 -20.0108 156.978 -1 -20.0000 157.500 996 -19.9563 157.459 TC -20.0000 157.000 2 14 116
1951083S08159 1951 21 SP EA NOT_NAMED 1951-03-31 00:00:00 TS -20.1007 157.411 main 673 615 O_____P__OP___ jtwc_sh SH251951 -20.1000 157.200 -1 -20.1191 157.732 -20.1000 157.700 TC 35 996 -20.0846 157.225 2 15 116
1951083S08159 1951 21 SP EA NOT_NAMED 1951-03-31 03:00:00 TS -20.4218 158.112 main 615 543 P_____P__PP___ SH251951 -20.3849 157.900 -1 -20.4710 158.442 -20.5188 158.413 TC -20.3495 157.905 2 15 117
1951083S08159 1951 21 SP EA NOT_NAMED 1951-03-31 06:00:00 TS -20.7606 158.811 main 544 484 O_____P__PP___ jtwc_sh SH251951 -20.7000 158.600 -1 -20.8303 159.155 -20.9222 159.113 TC -20.6504 158.587 2 14 118
1951083S08159 1951 21 SP EA NOT_NAMED 1951-03-31 09:00:00 TS -21.1031 159.470 main 476 440 P_____P__PP___ SH251951 -21.0122 159.258 -1 -21.2169 159.852 -21.3146 159.807 TC -21.0124 159.260 2 14 121
1951083S08159 1951 21 SP EA NOT_NAMED 1951-03-31 11:00:00 TS -21.3559 159.890 bom main 443 426 P_____O__PO___ SH251951 -21.2577 159.686 -1 -21.5000 160.300 -21.5721 160.269 TC -21.3000 159.700 2 14 124
1951083S08159 1951 21 SP MM NOT_NAMED 1951-03-31 12:00:00 TS -21.5030 160.109 main 426 391 O_____P__OP___ jtwc_sh SH251951 -21.4000 159.900 -1 -21.6512 160.517 -21.7000 160.500 TC -21.4602 159.916 2 16 130
1951083S08159 1951 21 SP MM NOT_NAMED 1951-03-31 15:00:00 TS -22.0176 160.746 main 391 369 P_____P___P___ SH251951 -21.9131 160.546 -1 -22.1401 161.141 TC -21.9997 160.551 2 16 133
1951083S08159 1951 21 SP MM NOT_NAMED 1951-03-31 18:00:00 TS -22.6040 161.391 main 369 357 O_____P___P___ jtwc_sh SH251951 -22.5000 161.200 -1 -22.6699 161.737 TC -22.6075 161.173 2 17 135
1951083S08159 1951 21 SP MM NOT_NAMED 1951-03-31 21:00:00 NR -23.2407 162.053 main 351 347 ______P___P___ SH251951 -1 -23.2245 162.316 TC -23.2570 161.789 2 17 137
1951083S08159 1951 21 SP MM NOT_NAMED 1951-03-31 23:00:00 NR -23.6500 162.450 994 bom main 348 ______O___O___ SH251951 -1 -23.6000 162.700 994 4 TC -23.7000 162.200 2 16 138

Digital Typhoon Data and Search

About IBTrACS Database

This database is a web-friendly format of International Best Track Archive for Climate Stewardship (IBTrACS), a global best track data archive curated by NOAA dating back to 1842.

Updated: 2021-10-27